sensor_id;sensor_type;location;lat;lon;timestamp;temperature;humidity
15288;DHT22;7745;48.708;9.026;2023-06-10T00:00:08;17.40;99.90
15288;DHT22;7745;48.708;9.026;2023-06-10T00:02:38;17.40;99.90
15288;DHT22;7745;48.708;9.026;2023-06-10T00:05:07;17.30;99.90
15288;DHT22;7745;48.708;9.026;2023-06-10T00:07:35;17.40;99.90
15288;DHT22;7745;48.708;9.026;2023-06-10T00:10:04;17.30;99.90
15288;DHT22;7745;48.708;9.026;2023-06-10T00:12:31;17.20;99.90
15288;DHT22;7745;48.708;9.026;2023-06-10T00:15:02;17.20;99.90
15288;DHT22;7745;48.708;9.026;2023-06-10T00:17:29;17.10;99.90
15288;DHT22;7745;48.708;9.026;2023-06-10T00:19:56;17.20;99.90
15288;DHT22;7745;48.708;9.026;2023-06-10T00:22:26;17.10;99.90
15288;DHT22;7745;48.708;9.026;2023-06-10T00:24:55;17.00;99.90
15288;DHT22;7745;48.708;9.026;2023-06-10T00:27:22;17.00;99.90
15288;DHT22;7745;48.708;9.026;2023-06-10T00:29:49;16.90;99.90
15288;DHT22;7745;48.708;9.026;2023-06-10T00:32:15;16.90;99.90
15288;DHT22;7745;48.708;9.026;2023-06-10T00:34:42;16.90;99.90
15288;DHT22;7745;48.708;9.026;2023-06-10T00:37:09;16.80;99.90
15288;DHT22;7745;48.708;9.026;2023-06-10T00:39:37;16.80;99.90
15288;DHT22;7745;48.708;9.026;2023-06-10T00:42:05;16.80;99.90
15288;DHT22;7745;48.708;9.026;2023-06-10T00:44:32;16.70;99.90
15288;DHT22;7745;48.708;9.026;2023-06-10T00:46:59;16.70;99.90
15288;DHT22;7745;48.708;9.026;2023-06-10T00:49:27;16.70;99.90
15288;DHT22;7745;48.708;9.026;2023-06-10T00:51:54;16.70;99.90
15288;DHT22;7745;48.708;9.026;2023-06-10T00:54:21;16.70;99.90
15288;DHT22;7745;48.708;9.026;2023-06-10T00:56:49;16.50;99.90
15288;DHT22;7745;48.708;9.026;2023-06-10T00:59:16;16.50;99.90
15288;DHT22;7745;48.708;9.026;2023-06-10T01:01:45;16.50;99.90
15288;DHT22;7745;48.708;9.026;2023-06-10T01:04:12;16.50;99.90
15288;DHT22;7745;48.708;9.026;2023-06-10T01:06:47;16.50;99.90
15288;DHT22;7745;48.708;9.026;2023-06-10T01:09:23;16.40;99.90
15288;DHT22;7745;48.708;9.026;2023-06-10T01:12:00;16.40;99.90
15288;DHT22;7745;48.708;9.026;2023-06-10T01:14:29;16.40;99.90
15288;DHT22;7745;48.708;9.026;2023-06-10T01:16:57;16.40;99.90
15288;DHT22;7745;48.708;9.026;2023-06-10T01:19:25;16.40;99.90
15288;DHT22;7745;48.708;9.026;2023-06-10T01:21:55;16.30;99.90
15288;DHT22;7745;48.708;9.026;2023-06-10T01:24:22;16.30;99.90
15288;DHT22;7745;48.708;9.026;2023-06-10T01:26:50;16.30;99.90
15288;DHT22;7745;48.708;9.026;2023-06-10T01:29:19;16.20;99.90
15288;DHT22;7745;48.708;9.026;2023-06-10T01:31:49;16.20;99.90
15288;DHT22;7745;48.708;9.026;2023-06-10T01:34:19;16.20;99.90
15288;DHT22;7745;48.708;9.026;2023-06-10T01:36:47;16.20;99.90
15288;DHT22;7745;48.708;9.026;2023-06-10T01:39:17;16.10;99.90
15288;DHT22;7745;48.708;9.026;2023-06-10T01:41:47;16.10;99.90
15288;DHT22;7745;48.708;9.026;2023-06-10T01:44:18;16.10;99.90
15288;DHT22;7745;48.708;9.026;2023-06-10T01:46:45;16.00;99.90
15288;DHT22;7745;48.708;9.026;2023-06-10T01:49:12;16.20;99.90
15288;DHT22;7745;48.708;9.026;2023-06-10T01:51:39;16.00;99.90
15288;DHT22;7745;48.708;9.026;2023-06-10T01:54:06;16.10;99.90
15288;DHT22;7745;48.708;9.026;2023-06-10T01:56:34;16.10;99.90
15288;DHT22;7745;48.708;9.026;2023-06-10T01:59:00;16.10;99.90
15288;DHT22;7745;48.708;9.026;2023-06-10T02:01:29;16.10;99.90
15288;DHT22;7745;48.708;9.026;2023-06-10T02:03:55;16.10;99.90
15288;DHT22;7745;48.708;9.026;2023-06-10T02:06:22;16.20;99.90
15288;DHT22;7745;48.708;9.026;2023-06-10T02:08:49;16.20;99.90
15288;DHT22;7745;48.708;9.026;2023-06-10T02:11:16;16.10;99.90
15288;DHT22;7745;48.708;9.026;2023-06-10T02:13:44;16.10;99.90
15288;DHT22;7745;48.708;9.026;2023-06-10T02:16:11;16.10;99.90
15288;DHT22;7745;48.708;9.026;2023-06-10T02:18:38;16.10;99.90
15288;DHT22;7745;48.708;9.026;2023-06-10T02:21:06;16.00;99.90
15288;DHT22;7745;48.708;9.026;2023-06-10T02:23:33;15.90;99.90
15288;DHT22;7745;48.708;9.026;2023-06-10T02:26:00;15.90;99.90
15288;DHT22;7745;48.708;9.026;2023-06-10T02:28:27;15.90;99.90
15288;DHT22;7745;48.708;9.026;2023-06-10T02:30:55;16.00;99.90
15288;DHT22;7745;48.708;9.026;2023-06-10T02:33:23;16.00;99.90
15288;DHT22;7745;48.708;9.026;2023-06-10T02:35:50;15.90;99.90
15288;DHT22;7745;48.708;9.026;2023-06-10T02:38:17;15.80;99.90
15288;DHT22;7745;48.708;9.026;2023-06-10T02:40:44;15.80;99.90
15288;DHT22;7745;48.708;9.026;2023-06-10T02:43:11;15.80;99.90
15288;DHT22;7745;48.708;9.026;2023-06-10T02:45:37;15.90;99.90
15288;DHT22;7745;48.708;9.026;2023-06-10T02:48:06;15.70;99.90
15288;DHT22;7745;48.708;9.026;2023-06-10T02:50:32;15.80;99.90
15288;DHT22;7745;48.708;9.026;2023-06-10T02:52:59;15.70;99.90
15288;DHT22;7745;48.708;9.026;2023-06-10T02:55:26;15.80;99.90
15288;DHT22;7745;48.708;9.026;2023-06-10T02:57:53;15.60;99.90
15288;DHT22;7745;48.708;9.026;2023-06-10T03:00:20;15.60;99.90
15288;DHT22;7745;48.708;9.026;2023-06-10T03:02:48;15.50;99.90
15288;DHT22;7745;48.708;9.026;2023-06-10T03:05:16;15.40;99.90
15288;DHT22;7745;48.708;9.026;2023-06-10T03:07:43;15.40;99.90
15288;DHT22;7745;48.708;9.026;2023-06-10T03:10:11;15.30;99.90
15288;DHT22;7745;48.708;9.026;2023-06-10T03:12:38;15.30;99.90
15288;DHT22;7745;48.708;9.026;2023-06-10T03:15:06;15.30;99.90
15288;DHT22;7745;48.708;9.026;2023-06-10T03:17:33;15.30;99.90
15288;DHT22;7745;48.708;9.026;2023-06-10T03:20:00;15.30;99.90
15288;DHT22;7745;48.708;9.026;2023-06-10T03:22:28;15.20;99.90
15288;DHT22;7745;48.708;9.026;2023-06-10T03:24:54;15.20;99.90
15288;DHT22;7745;48.708;9.026;2023-06-10T03:27:22;15.20;99.90
15288;DHT22;7745;48.708;9.026;2023-06-10T03:29:49;15.10;99.90
15288;DHT22;7745;48.708;9.026;2023-06-10T03:32:16;15.20;99.90
15288;DHT22;7745;48.708;9.026;2023-06-10T03:34:43;15.20;99.90
15288;DHT22;7745;48.708;9.026;2023-06-10T03:37:11;15.20;99.90
15288;DHT22;7745;48.708;9.026;2023-06-10T03:39:39;15.30;99.90
15288;DHT22;7745;48.708;9.026;2023-06-10T03:42:06;15.10;99.90
15288;DHT22;7745;48.708;9.026;2023-06-10T03:44:33;15.10;99.90
15288;DHT22;7745;48.708;9.026;2023-06-10T03:47:00;15.10;99.90
15288;DHT22;7745;48.708;9.026;2023-06-10T03:49:27;15.00;99.90
15288;DHT22;7745;48.708;9.026;2023-06-10T03:51:54;15.00;99.90
15288;DHT22;7745;48.708;9.026;2023-06-10T03:54:21;14.90;99.90
15288;DHT22;7745;48.708;9.026;2023-06-10T03:56:50;14.90;99.90
15288;DHT22;7745;48.708;9.026;2023-06-10T03:59:16;14.90;99.90
15288;DHT22;7745;48.708;9.026;2023-06-10T04:01:43;14.90;99.90
15288;DHT22;7745;48.708;9.026;2023-06-10T04:04:13;14.80;99.90
15288;DHT22;7745;48.708;9.026;2023-06-10T04:06:40;14.80;99.90
15288;DHT22;7745;48.708;9.026;2023-06-10T04:09:09;14.80;99.90
15288;DHT22;7745;48.708;9.026;2023-06-10T04:11:36;14.80;99.90
15288;DHT22;7745;48.708;9.026;2023-06-10T04:14:04;14.80;99.90
15288;DHT22;7745;48.708;9.026;2023-06-10T04:16:31;14.80;99.90
15288;DHT22;7745;48.708;9.026;2023-06-10T04:18:59;14.90;99.90
15288;DHT22;7745;48.708;9.026;2023-06-10T04:21:26;14.80;99.90
15288;DHT22;7745;48.708;9.026;2023-06-10T04:23:52;14.80;99.90
15288;DHT22;7745;48.708;9.026;2023-06-10T04:26:19;14.90;99.90
15288;DHT22;7745;48.708;9.026;2023-06-10T04:28:47;14.90;99.90
15288;DHT22;7745;48.708;9.026;2023-06-10T04:31:15;14.90;99.90
15288;DHT22;7745;48.708;9.026;2023-06-10T04:33:42;15.00;99.90
15288;DHT22;7745;48.708;9.026;2023-06-10T04:36:09;14.90;99.90
15288;DHT22;7745;48.708;9.026;2023-06-10T04:38:35;15.10;99.90
15288;DHT22;7745;48.708;9.026;2023-06-10T04:41:02;15.10;99.90
15288;DHT22;7745;48.708;9.026;2023-06-10T04:43:29;15.30;99.90
15288;DHT22;7745;48.708;9.026;2023-06-10T04:45:56;15.50;99.90
15288;DHT22;7745;48.708;9.026;2023-06-10T04:48:24;15.70;99.90
15288;DHT22;7745;48.708;9.026;2023-06-10T04:50:51;15.90;99.90
15288;DHT22;7745;48.708;9.026;2023-06-10T04:53:18;16.00;99.90
15288;DHT22;7745;48.708;9.026;2023-06-10T04:55:46;16.10;99.90
15288;DHT22;7745;48.708;9.026;2023-06-10T04:58:13;16.20;99.90
15288;DHT22;7745;48.708;9.026;2023-06-10T05:00:41;16.30;99.90
15288;DHT22;7745;48.708;9.026;2023-06-10T05:03:09;16.50;99.90
15288;DHT22;7745;48.708;9.026;2023-06-10T05:05:37;16.60;99.90
15288;DHT22;7745;48.708;9.026;2023-06-10T05:08:04;16.80;99.90
15288;DHT22;7745;48.708;9.026;2023-06-10T05:10:30;17.00;99.90
15288;DHT22;7745;48.708;9.026;2023-06-10T05:12:57;17.00;99.90
15288;DHT22;7745;48.708;9.026;2023-06-10T05:15:25;17.20;99.90
15288;DHT22;7745;48.708;9.026;2023-06-10T05:17:51;17.40;99.90
15288;DHT22;7745;48.708;9.026;2023-06-10T05:20:18;17.70;99.90
15288;DHT22;7745;48.708;9.026;2023-06-10T05:22:46;17.70;99.90
15288;DHT22;7745;48.708;9.026;2023-06-10T05:25:13;17.80;99.90
15288;DHT22;7745;48.708;9.026;2023-06-10T05:27:40;18.00;99.90
15288;DHT22;7745;48.708;9.026;2023-06-10T05:30:09;18.00;99.90
15288;DHT22;7745;48.708;9.026;2023-06-10T05:32:36;18.20;99.90
15288;DHT22;7745;48.708;9.026;2023-06-10T05:35:03;18.30;99.90
15288;DHT22;7745;48.708;9.026;2023-06-10T05:37:33;18.50;99.90
15288;DHT22;7745;48.708;9.026;2023-06-10T05:40:01;18.70;99.90
15288;DHT22;7745;48.708;9.026;2023-06-10T05:42:29;18.70;99.90
15288;DHT22;7745;48.708;9.026;2023-06-10T05:44:56;18.90;99.90
15288;DHT22;7745;48.708;9.026;2023-06-10T05:47:23;19.00;99.90
15288;DHT22;7745;48.708;9.026;2023-06-10T05:49:49;19.20;99.90
15288;DHT22;7745;48.708;9.026;2023-06-10T05:52:17;19.30;99.90
15288;DHT22;7745;48.708;9.026;2023-06-10T05:54:44;19.50;99.90
15288;DHT22;7745;48.708;9.026;2023-06-10T05:57:12;19.50;99.90
15288;DHT22;7745;48.708;9.026;2023-06-10T05:59:39;19.70;99.90
15288;DHT22;7745;48.708;9.026;2023-06-10T06:02:06;19.90;99.90
15288;DHT22;7745;48.708;9.026;2023-06-10T06:04:33;20.00;99.90
15288;DHT22;7745;48.708;9.026;2023-06-10T06:07:00;20.20;99.90
15288;DHT22;7745;48.708;9.026;2023-06-10T06:09:27;20.20;99.90
15288;DHT22;7745;48.708;9.026;2023-06-10T06:11:53;20.30;99.90
15288;DHT22;7745;48.708;9.026;2023-06-10T06:14:22;20.50;99.90
15288;DHT22;7745;48.708;9.026;2023-06-10T06:16:49;20.60;99.90
15288;DHT22;7745;48.708;9.026;2023-06-10T06:19:15;20.70;99.90
15288;DHT22;7745;48.708;9.026;2023-06-10T06:21:42;20.90;99.90
15288;DHT22;7745;48.708;9.026;2023-06-10T06:24:09;20.90;99.90
15288;DHT22;7745;48.708;9.026;2023-06-10T06:26:36;21.00;99.90
15288;DHT22;7745;48.708;9.026;2023-06-10T06:29:02;21.10;99.90
15288;DHT22;7745;48.708;9.026;2023-06-10T06:31:31;21.20;99.90
15288;DHT22;7745;48.708;9.026;2023-06-10T06:33:57;21.20;99.90
15288;DHT22;7745;48.708;9.026;2023-06-10T06:36:24;21.40;99.90
15288;DHT22;7745;48.708;9.026;2023-06-10T06:38:51;21.50;99.90
15288;DHT22;7745;48.708;9.026;2023-06-10T06:41:18;21.60;99.90
15288;DHT22;7745;48.708;9.026;2023-06-10T06:43:45;21.50;99.90
15288;DHT22;7745;48.708;9.026;2023-06-10T06:46:11;21.70;99.90
15288;DHT22;7745;48.708;9.026;2023-06-10T06:48:39;21.70;99.90
15288;DHT22;7745;48.708;9.026;2023-06-10T06:51:06;21.80;99.90
15288;DHT22;7745;48.708;9.026;2023-06-10T06:53:33;21.90;99.90
15288;DHT22;7745;48.708;9.026;2023-06-10T06:56:01;22.00;99.90
15288;DHT22;7745;48.708;9.026;2023-06-10T06:58:28;22.10;99.90
15288;DHT22;7745;48.708;9.026;2023-06-10T07:00:55;22.10;99.90
15288;DHT22;7745;48.708;9.026;2023-06-10T07:03:21;22.20;99.90
15288;DHT22;7745;48.708;9.026;2023-06-10T07:05:50;22.30;99.90
15288;DHT22;7745;48.708;9.026;2023-06-10T07:08:16;22.10;99.90
15288;DHT22;7745;48.708;9.026;2023-06-10T07:10:43;22.30;99.90
15288;DHT22;7745;48.708;9.026;2023-06-10T07:13:10;22.50;99.90
15288;DHT22;7745;48.708;9.026;2023-06-10T07:15:38;22.50;99.90
15288;DHT22;7745;48.708;9.026;2023-06-10T07:18:05;22.50;99.90
15288;DHT22;7745;48.708;9.026;2023-06-10T07:20:31;22.60;99.90
15288;DHT22;7745;48.708;9.026;2023-06-10T07:22:59;22.50;99.90
15288;DHT22;7745;48.708;9.026;2023-06-10T07:25:26;22.60;99.90
15288;DHT22;7745;48.708;9.026;2023-06-10T07:27:53;22.60;99.90
15288;DHT22;7745;48.708;9.026;2023-06-10T07:30:20;22.60;99.90
15288;DHT22;7745;48.708;9.026;2023-06-10T07:32:47;22.60;99.90
15288;DHT22;7745;48.708;9.026;2023-06-10T07:35:13;22.50;99.90
15288;DHT22;7745;48.708;9.026;2023-06-10T07:37:40;22.50;99.90
15288;DHT22;7745;48.708;9.026;2023-06-10T07:40:09;22.50;99.90
15288;DHT22;7745;48.708;9.026;2023-06-10T07:42:36;22.50;99.90
15288;DHT22;7745;48.708;9.026;2023-06-10T07:45:04;22.60;99.90
15288;DHT22;7745;48.708;9.026;2023-06-10T07:47:33;22.70;99.90
15288;DHT22;7745;48.708;9.026;2023-06-10T07:50:00;23.00;99.90
15288;DHT22;7745;48.708;9.026;2023-06-10T07:52:27;23.10;99.90
15288;DHT22;7745;48.708;9.026;2023-06-10T07:54:54;23.30;99.90
15288;DHT22;7745;48.708;9.026;2023-06-10T07:57:22;23.30;99.90
15288;DHT22;7745;48.708;9.026;2023-06-10T07:59:48;23.10;99.90
15288;DHT22;7745;48.708;9.026;2023-06-10T08:02:15;23.30;99.90
15288;DHT22;7745;48.708;9.026;2023-06-10T08:04:42;23.40;99.90
15288;DHT22;7745;48.708;9.026;2023-06-10T08:07:09;23.30;99.90
15288;DHT22;7745;48.708;9.026;2023-06-10T08:09:37;23.50;99.90
15288;DHT22;7745;48.708;9.026;2023-06-10T08:12:05;23.50;99.90
15288;DHT22;7745;48.708;9.026;2023-06-10T08:14:33;23.60;99.90
15288;DHT22;7745;48.708;9.026;2023-06-10T08:17:00;23.70;99.90
15288;DHT22;7745;48.708;9.026;2023-06-10T08:19:27;23.70;99.90
15288;DHT22;7745;48.708;9.026;2023-06-10T08:21:54;23.70;99.90
15288;DHT22;7745;48.708;9.026;2023-06-10T08:24:20;23.70;99.90
15288;DHT22;7745;48.708;9.026;2023-06-10T08:26:47;23.80;99.90
15288;DHT22;7745;48.708;9.026;2023-06-10T08:29:14;23.60;99.90
15288;DHT22;7745;48.708;9.026;2023-06-10T08:31:43;23.70;99.90
15288;DHT22;7745;48.708;9.026;2023-06-10T08:34:10;23.60;99.90
15288;DHT22;7745;48.708;9.026;2023-06-10T08:36:37;23.60;99.90
15288;DHT22;7745;48.708;9.026;2023-06-10T08:39:04;23.80;99.90
15288;DHT22;7745;48.708;9.026;2023-06-10T08:41:35;23.60;99.90
15288;DHT22;7745;48.708;9.026;2023-06-10T08:44:08;23.60;99.90
15288;DHT22;7745;48.708;9.026;2023-06-10T08:46:36;23.70;99.90
15288;DHT22;7745;48.708;9.026;2023-06-10T08:49:06;23.70;99.90
15288;DHT22;7745;48.708;9.026;2023-06-10T08:51:35;24.10;99.90
15288;DHT22;7745;48.708;9.026;2023-06-10T08:54:08;24.20;99.90
15288;DHT22;7745;48.708;9.026;2023-06-10T08:56:39;24.20;99.90
15288;DHT22;7745;48.708;9.026;2023-06-10T08:59:06;24.30;99.90
15288;DHT22;7745;48.708;9.026;2023-06-10T09:01:33;24.30;99.90
15288;DHT22;7745;48.708;9.026;2023-06-10T09:04:01;24.30;99.90
15288;DHT22;7745;48.708;9.026;2023-06-10T09:06:32;24.60;99.90
15288;DHT22;7745;48.708;9.026;2023-06-10T09:08:59;24.70;99.90
15288;DHT22;7745;48.708;9.026;2023-06-10T09:11:26;24.70;99.90
15288;DHT22;7745;48.708;9.026;2023-06-10T09:13:53;24.80;99.90
15288;DHT22;7745;48.708;9.026;2023-06-10T09:16:19;24.80;99.90
15288;DHT22;7745;48.708;9.026;2023-06-10T09:18:46;24.70;99.90
15288;DHT22;7745;48.708;9.026;2023-06-10T09:21:13;24.50;99.90
15288;DHT22;7745;48.708;9.026;2023-06-10T09:23:42;24.40;99.90
15288;DHT22;7745;48.708;9.026;2023-06-10T09:26:09;24.70;99.90
15288;DHT22;7745;48.708;9.026;2023-06-10T09:28:37;24.70;99.90
15288;DHT22;7745;48.708;9.026;2023-06-10T09:31:06;25.00;99.90
15288;DHT22;7745;48.708;9.026;2023-06-10T09:33:37;25.30;99.90
15288;DHT22;7745;48.708;9.026;2023-06-10T09:36:04;25.40;99.90
15288;DHT22;7745;48.708;9.026;2023-06-10T09:38:32;25.30;99.90
15288;DHT22;7745;48.708;9.026;2023-06-10T09:41:00;25.30;99.90
15288;DHT22;7745;48.708;9.026;2023-06-10T09:43:39;25.20;99.90
15288;DHT22;7745;48.708;9.026;2023-06-10T09:46:07;25.00;99.90
15288;DHT22;7745;48.708;9.026;2023-06-10T09:48:35;25.00;99.90
15288;DHT22;7745;48.708;9.026;2023-06-10T09:51:09;25.00;99.90
15288;DHT22;7745;48.708;9.026;2023-06-10T09:53:36;25.20;99.90
15288;DHT22;7745;48.708;9.026;2023-06-10T09:56:05;25.50;99.90
15288;DHT22;7745;48.708;9.026;2023-06-10T09:58:36;25.60;99.90
15288;DHT22;7745;48.708;9.026;2023-06-10T10:01:08;25.50;99.90
15288;DHT22;7745;48.708;9.026;2023-06-10T10:03:46;25.60;99.90
15288;DHT22;7745;48.708;9.026;2023-06-10T10:06:14;25.70;99.90
15288;DHT22;7745;48.708;9.026;2023-06-10T10:08:41;26.00;99.90
15288;DHT22;7745;48.708;9.026;2023-06-10T10:11:10;26.00;99.90
15288;DHT22;7745;48.708;9.026;2023-06-10T10:13:37;25.70;99.90
15288;DHT22;7745;48.708;9.026;2023-06-10T10:16:09;25.60;99.90
15288;DHT22;7745;48.708;9.026;2023-06-10T10:18:39;25.40;99.90
15288;DHT22;7745;48.708;9.026;2023-06-10T10:21:11;25.00;99.90
15288;DHT22;7745;48.708;9.026;2023-06-10T10:23:41;24.90;99.90
15288;DHT22;7745;48.708;9.026;2023-06-10T10:26:11;25.00;99.90
15288;DHT22;7745;48.708;9.026;2023-06-10T10:28:44;25.30;99.90
15288;DHT22;7745;48.708;9.026;2023-06-10T10:31:13;25.30;99.90
15288;DHT22;7745;48.708;9.026;2023-06-10T10:33:46;25.30;99.90
15288;DHT22;7745;48.708;9.026;2023-06-10T10:36:15;25.30;99.90
15288;DHT22;7745;48.708;9.026;2023-06-10T10:38:43;25.60;99.90
15288;DHT22;7745;48.708;9.026;2023-06-10T10:41:14;26.00;99.90
15288;DHT22;7745;48.708;9.026;2023-06-10T10:43:41;26.30;99.90
15288;DHT22;7745;48.708;9.026;2023-06-10T10:46:12;26.80;99.90
15288;DHT22;7745;48.708;9.026;2023-06-10T10:48:39;27.00;99.90
15288;DHT22;7745;48.708;9.026;2023-06-10T10:51:06;26.80;99.90
15288;DHT22;7745;48.708;9.026;2023-06-10T10:53:33;26.50;99.90
15288;DHT22;7745;48.708;9.026;2023-06-10T10:56:05;26.70;99.90
15288;DHT22;7745;48.708;9.026;2023-06-10T10:58:33;26.60;99.90
15288;DHT22;7745;48.708;9.026;2023-06-10T11:01:10;26.40;99.90
15288;DHT22;7745;48.708;9.026;2023-06-10T11:03:43;26.00;99.90
15288;DHT22;7745;48.708;9.026;2023-06-10T11:06:13;25.90;99.90
15288;DHT22;7745;48.708;9.026;2023-06-10T11:08:47;25.90;99.90
15288;DHT22;7745;48.708;9.026;2023-06-10T11:11:19;25.80;99.90
15288;DHT22;7745;48.708;9.026;2023-06-10T11:14:04;25.90;99.90
15288;DHT22;7745;48.708;9.026;2023-06-10T11:16:39;25.90;99.90
15288;DHT22;7745;48.708;9.026;2023-06-10T11:19:06;25.90;99.90
15288;DHT22;7745;48.708;9.026;2023-06-10T11:21:45;25.80;99.90
15288;DHT22;7745;48.708;9.026;2023-06-10T11:24:23;25.60;99.90
15288;DHT22;7745;48.708;9.026;2023-06-10T11:26:51;25.50;99.90
15288;DHT22;7745;48.708;9.026;2023-06-10T11:29:19;25.40;99.90
15288;DHT22;7745;48.708;9.026;2023-06-10T11:31:50;25.50;99.90
15288;DHT22;7745;48.708;9.026;2023-06-10T11:34:23;25.40;99.90
15288;DHT22;7745;48.708;9.026;2023-06-10T11:36:53;25.30;99.90
15288;DHT22;7745;48.708;9.026;2023-06-10T11:39:21;25.40;99.90
15288;DHT22;7745;48.708;9.026;2023-06-10T11:41:49;25.80;99.90
15288;DHT22;7745;48.708;9.026;2023-06-10T11:44:18;25.90;99.90
15288;DHT22;7745;48.708;9.026;2023-06-10T11:46:47;26.20;99.90
15288;DHT22;7745;48.708;9.026;2023-06-10T11:49:14;26.20;99.90
15288;DHT22;7745;48.708;9.026;2023-06-10T11:51:41;26.10;99.90
15288;DHT22;7745;48.708;9.026;2023-06-10T11:54:14;26.00;99.90
15288;DHT22;7745;48.708;9.026;2023-06-10T11:56:41;25.90;99.90
15288;DHT22;7745;48.708;9.026;2023-06-10T11:59:08;25.90;99.90
15288;DHT22;7745;48.708;9.026;2023-06-10T12:01:37;26.20;99.90
15288;DHT22;7745;48.708;9.026;2023-06-10T12:04:06;26.30;99.90
15288;DHT22;7745;48.708;9.026;2023-06-10T12:06:40;26.40;99.90
15288;DHT22;7745;48.708;9.026;2023-06-10T12:09:13;26.30;99.90
15288;DHT22;7745;48.708;9.026;2023-06-10T12:11:40;26.20;99.90
15288;DHT22;7745;48.708;9.026;2023-06-10T12:14:08;26.30;99.90
15288;DHT22;7745;48.708;9.026;2023-06-10T12:16:36;26.30;99.90
15288;DHT22;7745;48.708;9.026;2023-06-10T12:19:04;26.50;99.90
15288;DHT22;7745;48.708;9.026;2023-06-10T12:21:33;26.60;99.90
15288;DHT22;7745;48.708;9.026;2023-06-10T12:24:02;26.70;99.90
15288;DHT22;7745;48.708;9.026;2023-06-10T12:26:40;26.90;99.90
15288;DHT22;7745;48.708;9.026;2023-06-10T12:29:21;26.60;99.90
15288;DHT22;7745;48.708;9.026;2023-06-10T12:32:00;26.60;99.90
15288;DHT22;7745;48.708;9.026;2023-06-10T12:34:32;26.60;99.90
15288;DHT22;7745;48.708;9.026;2023-06-10T12:36:59;26.80;99.90
15288;DHT22;7745;48.708;9.026;2023-06-10T12:39:27;27.30;99.90
15288;DHT22;7745;48.708;9.026;2023-06-10T12:41:54;27.70;99.90
15288;DHT22;7745;48.708;9.026;2023-06-10T12:44:29;27.70;99.90
15288;DHT22;7745;48.708;9.026;2023-06-10T12:46:56;27.70;99.90
15288;DHT22;7745;48.708;9.026;2023-06-10T12:49:24;27.50;99.90
15288;DHT22;7745;48.708;9.026;2023-06-10T12:51:52;27.40;99.90
15288;DHT22;7745;48.708;9.026;2023-06-10T12:54:19;27.20;99.90
15288;DHT22;7745;48.708;9.026;2023-06-10T12:56:46;27.00;99.90
15288;DHT22;7745;48.708;9.026;2023-06-10T12:59:13;27.10;99.90
15288;DHT22;7745;48.708;9.026;2023-06-10T13:01:40;27.00;99.90
15288;DHT22;7745;48.708;9.026;2023-06-10T13:04:06;27.20;99.90
15288;DHT22;7745;48.708;9.026;2023-06-10T13:06:35;27.30;99.90
15288;DHT22;7745;48.708;9.026;2023-06-10T13:09:05;27.40;99.90
15288;DHT22;7745;48.708;9.026;2023-06-10T13:11:34;27.50;99.90
15288;DHT22;7745;48.708;9.026;2023-06-10T13:14:01;27.50;99.90
15288;DHT22;7745;48.708;9.026;2023-06-10T13:16:30;27.30;99.90
15288;DHT22;7745;48.708;9.026;2023-06-10T13:18:57;27.10;99.90
15288;DHT22;7745;48.708;9.026;2023-06-10T13:21:24;26.90;99.90
15288;DHT22;7745;48.708;9.026;2023-06-10T13:23:53;26.60;99.90
15288;DHT22;7745;48.708;9.026;2023-06-10T13:26:19;26.60;99.90
15288;DHT22;7745;48.708;9.026;2023-06-10T13:28:47;26.50;99.90
15288;DHT22;7745;48.708;9.026;2023-06-10T13:31:14;26.40;99.90
15288;DHT22;7745;48.708;9.026;2023-06-10T13:33:42;26.30;99.90
15288;DHT22;7745;48.708;9.026;2023-06-10T13:36:09;26.40;99.90
15288;DHT22;7745;48.708;9.026;2023-06-10T13:38:36;26.60;99.90
15288;DHT22;7745;48.708;9.026;2023-06-10T13:41:04;26.60;99.90
15288;DHT22;7745;48.708;9.026;2023-06-10T13:43:31;26.70;99.90
15288;DHT22;7745;48.708;9.026;2023-06-10T13:45:58;26.70;99.90
15288;DHT22;7745;48.708;9.026;2023-06-10T13:48:25;26.80;99.90
15288;DHT22;7745;48.708;9.026;2023-06-10T13:50:52;26.90;99.90
15288;DHT22;7745;48.708;9.026;2023-06-10T13:53:19;27.20;99.90
15288;DHT22;7745;48.708;9.026;2023-06-10T13:55:46;27.50;99.90
15288;DHT22;7745;48.708;9.026;2023-06-10T13:58:14;27.60;99.90
15288;DHT22;7745;48.708;9.026;2023-06-10T14:00:40;27.40;99.90
15288;DHT22;7745;48.708;9.026;2023-06-10T14:03:07;27.00;99.90
15288;DHT22;7745;48.708;9.026;2023-06-10T14:05:34;26.60;99.90
15288;DHT22;7745;48.708;9.026;2023-06-10T14:08:01;26.60;99.90
15288;DHT22;7745;48.708;9.026;2023-06-10T14:10:29;26.40;99.90
15288;DHT22;7745;48.708;9.026;2023-06-10T14:12:56;26.20;99.90
15288;DHT22;7745;48.708;9.026;2023-06-10T14:15:24;26.20;99.90
15288;DHT22;7745;48.708;9.026;2023-06-10T14:17:51;26.10;99.90
15288;DHT22;7745;48.708;9.026;2023-06-10T14:20:18;26.10;99.90
15288;DHT22;7745;48.708;9.026;2023-06-10T14:22:44;26.10;99.90
15288;DHT22;7745;48.708;9.026;2023-06-10T14:25:11;26.10;99.90
15288;DHT22;7745;48.708;9.026;2023-06-10T14:27:38;26.30;99.90
15288;DHT22;7745;48.708;9.026;2023-06-10T14:30:06;26.40;99.90
15288;DHT22;7745;48.708;9.026;2023-06-10T14:32:34;26.60;99.90
15288;DHT22;7745;48.708;9.026;2023-06-10T14:35:01;26.90;99.90
15288;DHT22;7745;48.708;9.026;2023-06-10T14:37:28;26.80;99.90
15288;DHT22;7745;48.708;9.026;2023-06-10T14:39:55;26.80;99.90
15288;DHT22;7745;48.708;9.026;2023-06-10T14:42:22;26.90;99.90
15288;DHT22;7745;48.708;9.026;2023-06-10T14:44:48;26.90;99.90
15288;DHT22;7745;48.708;9.026;2023-06-10T14:47:16;26.90;99.90
15288;DHT22;7745;48.708;9.026;2023-06-10T14:49:44;26.90;99.90
15288;DHT22;7745;48.708;9.026;2023-06-10T14:52:11;27.10;99.90
15288;DHT22;7745;48.708;9.026;2023-06-10T14:54:38;27.10;99.90
15288;DHT22;7745;48.708;9.026;2023-06-10T14:57:05;27.20;99.90
15288;DHT22;7745;48.708;9.026;2023-06-10T14:59:32;27.00;99.90
15288;DHT22;7745;48.708;9.026;2023-06-10T15:01:59;27.10;99.90
15288;DHT22;7745;48.708;9.026;2023-06-10T15:04:26;27.00;99.90
15288;DHT22;7745;48.708;9.026;2023-06-10T15:06:55;27.00;99.90
15288;DHT22;7745;48.708;9.026;2023-06-10T15:09:21;27.00;99.90
15288;DHT22;7745;48.708;9.026;2023-06-10T15:11:48;27.00;99.90
15288;DHT22;7745;48.708;9.026;2023-06-10T15:14:15;27.10;99.90
15288;DHT22;7745;48.708;9.026;2023-06-10T15:16:42;27.50;99.90
15288;DHT22;7745;48.708;9.026;2023-06-10T15:19:08;27.40;99.90
15288;DHT22;7745;48.708;9.026;2023-06-10T15:21:35;27.50;99.90
15288;DHT22;7745;48.708;9.026;2023-06-10T15:24:04;27.40;99.90
15288;DHT22;7745;48.708;9.026;2023-06-10T15:26:31;27.30;99.90
15288;DHT22;7745;48.708;9.026;2023-06-10T15:28:58;27.00;99.90
15288;DHT22;7745;48.708;9.026;2023-06-10T15:31:29;26.90;99.90
15288;DHT22;7745;48.708;9.026;2023-06-10T15:33:57;27.00;99.90
15288;DHT22;7745;48.708;9.026;2023-06-10T15:36:24;27.30;99.90
15288;DHT22;7745;48.708;9.026;2023-06-10T15:38:51;27.50;99.90
15288;DHT22;7745;48.708;9.026;2023-06-10T15:41:19;27.40;99.90
15288;DHT22;7745;48.708;9.026;2023-06-10T15:43:46;27.50;99.90
15288;DHT22;7745;48.708;9.026;2023-06-10T15:46:13;27.40;99.90
15288;DHT22;7745;48.708;9.026;2023-06-10T15:48:39;27.40;99.90